createdAt,value
2023-04-18T00:01:49.055Z,9.00
2023-04-18T00:04:18.368Z,9.00
2023-04-18T00:06:46.504Z,9.00
2023-04-18T00:09:13.311Z,9.00
2023-04-18T00:11:40.074Z,9.00
2023-04-18T00:14:06.798Z,9.00
2023-04-18T00:16:33.684Z,9.10
2023-04-18T00:19:02.360Z,9.00
2023-04-18T00:21:30.359Z,8.90
2023-04-18T00:23:57.085Z,8.90
2023-04-18T00:26:23.898Z,8.90
2023-04-18T00:28:50.684Z,8.90
2023-04-18T00:31:17.471Z,8.80
2023-04-18T00:33:44.190Z,8.80
2023-04-18T00:36:10.885Z,8.90
2023-04-18T00:38:37.594Z,8.90
2023-04-18T00:41:04.320Z,8.80
2023-04-18T00:43:31.223Z,8.80
2023-04-18T00:46:01.545Z,8.80
2023-04-18T00:48:28.440Z,8.80
2023-04-18T00:50:55.194Z,8.80
2023-04-18T00:53:21.877Z,8.80
2023-04-18T00:55:48.580Z,8.80
2023-04-18T00:58:15.356Z,8.90
2023-04-18T01:00:42.799Z,8.80
2023-04-18T01:03:10.946Z,8.80
2023-04-18T01:05:37.889Z,8.90
2023-04-18T01:08:04.689Z,8.90
2023-04-18T01:10:31.466Z,8.90
2023-04-18T01:12:58.110Z,8.90
2023-04-18T01:15:24.862Z,8.90
2023-04-18T01:17:52.545Z,8.90
2023-04-18T01:20:19.691Z,8.80
2023-04-18T01:22:46.640Z,8.90
2023-04-18T01:25:13.313Z,8.80
2023-04-18T01:27:39.976Z,8.80
2023-04-18T01:30:06.847Z,8.80
2023-04-18T01:32:33.560Z,8.80
2023-04-18T01:35:00.241Z,8.80
2023-04-18T01:37:26.903Z,8.80
2023-04-18T01:39:54.019Z,8.90
2023-04-18T01:42:20.751Z,8.90
2023-04-18T01:44:47.501Z,8.80
2023-04-18T01:47:14.179Z,8.80
2023-04-18T01:49:43.097Z,8.80
2023-04-18T01:52:12.620Z,8.80
2023-04-18T01:54:39.441Z,8.80
2023-04-18T01:57:06.225Z,8.80
2023-04-18T01:59:34.240Z,8.80
2023-04-18T02:02:01.104Z,8.90
2023-04-18T02:04:27.876Z,8.90
2023-04-18T02:06:54.552Z,8.80
2023-04-18T02:09:21.365Z,8.90
2023-04-18T02:11:48.131Z,8.80
2023-04-18T02:14:15.086Z,8.90
2023-04-18T02:16:41.942Z,8.90
2023-04-18T02:19:08.659Z,8.90
2023-04-18T02:21:35.280Z,8.90
2023-04-18T02:24:01.932Z,8.90
2023-04-18T02:26:28.652Z,8.90
2023-04-18T02:28:55.725Z,8.90
2023-04-18T02:31:22.433Z,8.90
2023-04-18T02:33:49.454Z,8.90
2023-04-18T02:36:16.205Z,8.90
2023-04-18T02:38:42.830Z,8.90
2023-04-18T02:41:09.451Z,8.90
2023-04-18T02:43:36.082Z,9.00
2023-04-18T02:46:02.817Z,8.90
2023-04-18T02:48:29.615Z,9.00
2023-04-18T02:50:56.395Z,8.90
2023-04-18T02:53:25.076Z,8.90
2023-04-18T02:55:51.722Z,8.90
2023-04-18T02:58:18.437Z,9.00
2023-04-18T03:00:45.130Z,9.00
2023-04-18T03:03:12.859Z,9.00
2023-04-18T03:05:40.043Z,9.00
2023-04-18T03:08:06.644Z,9.00
2023-04-18T03:10:33.318Z,9.00
2023-04-18T03:13:00.069Z,9.00
2023-04-18T03:15:26.997Z,9.00
2023-04-18T03:17:53.778Z,8.90
2023-04-18T03:20:20.505Z,9.00
2023-04-18T03:22:47.141Z,9.00
2023-04-18T03:25:13.818Z,8.90
2023-04-18T03:27:40.561Z,8.90
2023-04-18T03:30:07.351Z,8.90
2023-04-18T03:32:35.280Z,8.90
2023-04-18T03:35:01.953Z,8.90
2023-04-18T03:37:28.595Z,9.00
2023-04-18T03:39:55.376Z,9.00
2023-04-18T03:42:22.082Z,9.00
2023-04-18T03:44:48.847Z,8.90
2023-04-18T03:47:15.593Z,8.90
2023-04-18T03:49:42.192Z,8.90
2023-04-18T03:52:08.783Z,8.90
2023-04-18T03:54:35.478Z,8.90
2023-04-18T03:57:03.178Z,8.90
2023-04-18T03:59:29.856Z,8.80
2023-04-18T04:01:56.508Z,8.70
2023-04-18T04:04:23.444Z,8.70
2023-04-18T04:06:50.724Z,8.60
2023-04-18T04:09:17.556Z,8.60
2023-04-18T04:11:45.920Z,8.60
2023-04-18T04:14:13.004Z,8.60
2023-04-18T04:16:40.544Z,8.60
2023-04-18T04:19:07.166Z,8.60
2023-04-18T04:21:33.848Z,8.60
2023-04-18T04:24:01.462Z,8.50
2023-04-18T04:26:28.188Z,8.50
2023-04-18T04:28:54.932Z,8.50
2023-04-18T04:31:22.263Z,8.40
2023-04-18T04:33:48.986Z,8.30
2023-04-18T04:36:18.781Z,8.30
2023-04-18T04:38:45.821Z,8.20
2023-04-18T04:41:12.835Z,8.20
2023-04-18T04:43:41.382Z,8.10
2023-04-18T04:46:08.850Z,8.10
2023-04-18T04:48:35.627Z,8.10
2023-04-18T04:51:02.484Z,8.00
2023-04-18T04:53:32.394Z,8.00
2023-04-18T04:56:01.276Z,7.90
2023-04-18T04:58:28.099Z,7.90
2023-04-18T05:00:54.985Z,7.90
2023-04-18T05:03:21.887Z,7.90
2023-04-18T05:05:48.797Z,8.00
2023-04-18T05:08:15.486Z,8.00
2023-04-18T05:10:43.375Z,8.00
2023-04-18T05:13:10.205Z,8.00
2023-04-18T05:15:36.815Z,8.00
2023-04-18T05:18:03.471Z,7.90
2023-04-18T05:20:30.400Z,8.00
2023-04-18T05:22:57.125Z,8.00
2023-04-18T05:25:24.036Z,8.00
2023-04-18T05:27:50.633Z,8.00
2023-04-18T05:30:17.762Z,8.00
2023-04-18T05:32:44.409Z,8.00
2023-04-18T05:35:11.158Z,8.00
2023-04-18T05:37:37.844Z,7.80
2023-04-18T05:40:05.074Z,7.80
2023-04-18T05:42:31.708Z,7.90
2023-04-18T05:44:58.373Z,7.80
2023-04-18T05:47:28.541Z,7.70
2023-04-18T05:49:55.482Z,7.70
2023-04-18T05:52:22.218Z,7.70
2023-04-18T05:54:48.978Z,7.80
2023-04-18T05:57:16.222Z,7.80
2023-04-18T05:59:42.954Z,7.80
2023-04-18T06:02:13.573Z,7.80
2023-04-18T06:04:41.872Z,7.80
2023-04-18T06:07:08.814Z,7.80
2023-04-18T06:09:35.553Z,7.90
2023-04-18T06:12:02.370Z,7.90
2023-04-18T06:14:29.034Z,7.80
2023-04-18T06:16:55.720Z,7.90
2023-04-18T06:19:22.518Z,8.00
2023-04-18T06:21:49.222Z,7.90
2023-04-18T06:24:16.264Z,7.90
2023-04-18T06:26:43.297Z,8.00
2023-04-18T06:29:10.088Z,8.00
2023-04-18T06:31:36.823Z,8.00
2023-04-18T06:34:03.572Z,8.10
2023-04-18T06:36:30.444Z,8.10
2023-04-18T06:38:57.173Z,8.10
2023-04-18T06:41:23.862Z,8.10
2023-04-18T06:44:02.650Z,8.10
2023-04-18T06:46:30.687Z,8.10
2023-04-18T06:48:57.502Z,8.10
2023-04-18T06:51:24.230Z,8.10
2023-04-18T06:53:52.987Z,8.10
2023-04-18T06:56:20.621Z,8.10
2023-04-18T06:58:47.262Z,8.20
2023-04-18T07:01:13.962Z,8.20
2023-04-18T07:03:40.789Z,8.20
2023-04-18T07:06:08.926Z,8.30
2023-04-18T07:08:35.605Z,8.40
2023-04-18T07:11:02.251Z,8.40
2023-04-18T07:13:28.881Z,8.50
2023-04-18T07:15:55.555Z,8.40
2023-04-18T07:18:34.154Z,8.50
2023-04-18T07:21:03.762Z,8.70
2023-04-18T07:23:30.700Z,8.90
2023-04-18T07:25:59.538Z,8.90
2023-04-18T07:28:26.231Z,8.90
2023-04-18T07:30:55.235Z,8.90
2023-04-18T07:33:22.042Z,9.10
2023-04-18T07:35:50.037Z,9.20
2023-04-18T07:38:16.722Z,9.20
2023-04-18T07:40:43.353Z,9.30
2023-04-18T07:43:09.980Z,9.40
2023-04-18T07:45:38.436Z,9.50
2023-04-18T07:48:05.162Z,9.70
2023-04-18T07:50:32.027Z,9.60
2023-04-18T07:52:58.743Z,9.60
2023-04-18T07:55:25.447Z,9.60
2023-04-18T07:57:52.158Z,9.50
2023-04-18T08:00:18.785Z,9.50
2023-04-18T08:02:45.574Z,9.60
2023-04-18T08:05:12.396Z,9.60
2023-04-18T08:07:39.038Z,9.60
2023-04-18T08:10:05.776Z,9.70
2023-04-18T08:12:32.460Z,9.70
2023-04-18T08:14:59.195Z,9.90
2023-04-18T08:17:25.933Z,9.90
2023-04-18T08:19:52.584Z,10.00
2023-04-18T08:22:19.263Z,10.10
2023-04-18T08:25:01.112Z,10.10
2023-04-18T08:27:31.493Z,10.10
2023-04-18T08:29:58.332Z,10.30
2023-04-18T08:32:25.092Z,10.30
2023-04-18T08:34:51.856Z,10.40
2023-04-18T08:37:18.486Z,10.50
2023-04-18T08:39:45.248Z,10.50
2023-04-18T08:42:11.972Z,10.60
2023-04-18T08:44:38.634Z,10.80
2023-04-18T08:47:06.230Z,10.90
2023-04-18T08:49:33.769Z,10.90
2023-04-18T08:52:01.300Z,11.00
2023-04-18T08:54:30.503Z,11.10
2023-04-18T08:56:57.248Z,11.10
2023-04-18T08:59:25.238Z,11.10
2023-04-18T09:01:52.914Z,11.20
2023-04-18T09:04:22.245Z,11.20
2023-04-18T09:06:49.219Z,11.20
2023-04-18T09:09:15.973Z,11.10
2023-04-18T09:11:42.703Z,11.00
2023-04-18T09:14:09.368Z,11.00
2023-04-18T09:16:36.076Z,11.10
2023-04-18T09:19:04.691Z,11.10
2023-04-18T09:21:33.025Z,11.10
2023-04-18T09:23:59.726Z,11.20
2023-04-18T09:26:26.458Z,11.30
2023-04-18T09:28:53.973Z,11.30
2023-04-18T09:31:22.310Z,11.30
2023-04-18T09:33:49.738Z,11.00
2023-04-18T09:36:16.773Z,10.90
2023-04-18T09:38:43.385Z,10.90
2023-04-18T09:41:10.116Z,10.80
2023-04-18T09:43:36.738Z,10.80
2023-04-18T09:46:03.434Z,10.90
2023-04-18T09:48:30.365Z,10.90
2023-04-18T09:50:56.973Z,10.90
2023-04-18T09:53:23.736Z,11.00
2023-04-18T09:55:50.464Z,10.90
2023-04-18T09:58:17.360Z,10.90
2023-04-18T10:00:46.269Z,11.00
2023-04-18T10:03:13.600Z,11.00
2023-04-18T10:05:40.662Z,10.90
2023-04-18T10:08:07.413Z,10.90
2023-04-18T10:10:34.059Z,10.90
2023-04-18T10:13:00.727Z,10.90
2023-04-18T10:15:27.389Z,11.00
2023-04-18T10:18:03.783Z,11.00
2023-04-18T10:20:32.230Z,10.90
2023-04-18T10:22:58.812Z,11.00
2023-04-18T10:25:25.552Z,11.10
2023-04-18T10:27:52.212Z,11.10
2023-04-18T10:30:18.942Z,11.00
2023-04-18T10:32:45.722Z,11.00
2023-04-18T10:35:12.485Z,11.10
2023-04-18T10:37:39.089Z,11.20
2023-04-18T10:40:10.382Z,11.30
2023-04-18T10:42:36.987Z,11.20
2023-04-18T10:45:03.689Z,11.20
2023-04-18T10:47:30.578Z,11.20
2023-04-18T10:49:57.400Z,11.20
2023-04-18T10:52:24.186Z,11.10
2023-04-18T10:54:50.967Z,11.10
2023-04-18T10:57:17.863Z,11.20
2023-04-18T10:59:44.548Z,11.10
2023-04-18T11:02:11.309Z,11.10
2023-04-18T11:04:38.089Z,11.00
2023-04-18T11:07:04.859Z,10.90
2023-04-18T11:09:31.544Z,10.90
2023-04-18T11:11:58.236Z,10.90
2023-04-18T11:14:24.867Z,11.00
2023-04-18T11:16:51.565Z,11.00
2023-04-18T11:19:19.069Z,10.90
2023-04-18T11:21:45.810Z,10.70
2023-04-18T11:24:12.621Z,10.80
2023-04-18T11:26:39.774Z,10.80
2023-04-18T11:29:06.454Z,10.90
2023-04-18T11:31:33.224Z,11.20
2023-04-18T11:33:59.944Z,11.40
2023-04-18T11:36:26.603Z,11.60
2023-04-18T11:38:53.325Z,11.60
2023-04-18T11:41:20.096Z,11.60
2023-04-18T11:43:46.770Z,11.40
2023-04-18T11:46:13.735Z,11.40
2023-04-18T11:48:40.795Z,11.30
2023-04-18T11:51:07.620Z,11.30
2023-04-18T11:53:34.756Z,11.20
2023-04-18T11:56:03.575Z,11.20
2023-04-18T11:58:30.302Z,11.20
2023-04-18T12:00:57.088Z,11.30
2023-04-18T12:03:24.895Z,11.30
2023-04-18T12:05:52.013Z,11.20
2023-04-18T12:08:18.773Z,11.30
2023-04-18T12:10:45.522Z,11.10
2023-04-18T12:13:12.180Z,10.90
2023-04-18T12:15:39.334Z,10.90
2023-04-18T12:18:08.460Z,10.90
2023-04-18T12:20:35.575Z,10.90
2023-04-18T12:23:03.633Z,10.80
2023-04-18T12:25:30.272Z,10.90
2023-04-18T12:27:58.143Z,10.80
2023-04-18T12:30:25.662Z,10.70
2023-04-18T12:32:52.362Z,10.80
2023-04-18T12:35:22.139Z,10.80
2023-04-18T12:37:48.936Z,10.90
2023-04-18T12:40:15.743Z,11.10
2023-04-18T12:42:42.463Z,11.20
2023-04-18T12:45:09.215Z,11.30
2023-04-18T12:47:35.932Z,11.30
2023-04-18T12:50:02.708Z,11.30
2023-04-18T12:52:30.405Z,11.20
2023-04-18T12:54:57.933Z,11.00
2023-04-18T12:57:24.645Z,10.80
2023-04-18T12:59:51.340Z,10.70
2023-04-18T13:02:21.153Z,10.60
2023-04-18T13:04:48.049Z,10.60
2023-04-18T13:07:14.818Z,10.50
2023-04-18T13:09:41.492Z,10.50
2023-04-18T13:12:08.168Z,10.50
2023-04-18T13:14:34.854Z,10.40
2023-04-18T13:17:01.571Z,10.40
2023-04-18T13:19:28.383Z,10.40
2023-04-18T13:21:55.051Z,10.40
2023-04-18T13:24:21.773Z,10.50
2023-04-18T13:26:48.448Z,10.60
2023-04-18T13:29:15.521Z,10.70
2023-04-18T13:31:42.771Z,10.60
2023-04-18T13:34:09.456Z,10.70
2023-04-18T13:36:36.172Z,10.70
2023-04-18T13:39:04.696Z,10.70
2023-04-18T13:41:31.597Z,10.50
2023-04-18T13:43:58.457Z,10.60
2023-04-18T13:46:26.734Z,10.80
2023-04-18T13:48:53.481Z,10.90
2023-04-18T13:51:20.220Z,11.00
2023-04-18T13:53:46.890Z,11.00
2023-04-18T13:56:13.677Z,11.00
2023-04-18T13:58:40.632Z,11.00
2023-04-18T14:01:07.703Z,11.00
2023-04-18T14:03:35.621Z,10.90
2023-04-18T14:06:04.300Z,10.90
2023-04-18T14:08:30.962Z,10.90
2023-04-18T14:10:57.598Z,10.90
2023-04-18T14:13:24.341Z,10.90
2023-04-18T14:15:51.140Z,10.90
2023-04-18T14:18:21.855Z,10.90
2023-04-18T14:20:48.815Z,10.80
2023-04-18T14:23:16.189Z,10.70
2023-04-18T14:25:42.851Z,10.60
2023-04-18T14:28:09.876Z,10.70
2023-04-18T14:30:36.702Z,10.70
2023-04-18T14:33:03.935Z,10.80
2023-04-18T14:35:30.990Z,10.80
2023-04-18T14:37:57.740Z,10.80
2023-04-18T14:40:24.497Z,10.90
2023-04-18T14:42:51.303Z,10.90
2023-04-18T14:45:18.073Z,10.80
2023-04-18T14:47:44.878Z,10.70
2023-04-18T14:50:12.278Z,10.70
2023-04-18T14:52:39.041Z,10.70
2023-04-18T14:55:05.824Z,10.60
2023-04-18T14:57:32.542Z,10.60
2023-04-18T14:59:59.218Z,10.60
2023-04-18T15:02:26.306Z,10.70
2023-04-18T15:04:53.660Z,10.80
2023-04-18T15:07:20.565Z,10.80
2023-04-18T15:09:47.353Z,10.80
2023-04-18T15:12:14.142Z,10.90
2023-04-18T15:14:40.940Z,10.80
2023-04-18T15:17:07.653Z,10.80
2023-04-18T15:19:34.665Z,10.80
2023-04-18T15:22:01.372Z,10.80
2023-04-18T15:24:28.016Z,10.80
2023-04-18T15:26:54.954Z,10.90
2023-04-18T15:29:21.801Z,10.80
2023-04-18T15:31:48.651Z,10.70
2023-04-18T15:34:15.732Z,10.80
2023-04-18T15:36:42.657Z,10.80
2023-04-18T15:39:09.577Z,10.80
2023-04-18T15:41:36.314Z,10.80
2023-04-18T15:44:02.957Z,10.80
2023-04-18T15:46:29.757Z,10.80
2023-04-18T15:48:56.463Z,10.80
2023-04-18T15:51:23.210Z,10.60
2023-04-18T15:53:49.831Z,10.70
2023-04-18T15:56:16.949Z,10.70
2023-04-18T15:58:43.607Z,10.60
2023-04-18T16:01:10.516Z,10.60
2023-04-18T16:03:38.013Z,10.70
2023-04-18T16:06:04.829Z,10.70
2023-04-18T16:08:33.145Z,10.80
2023-04-18T16:11:00.282Z,10.80
2023-04-18T16:13:27.071Z,11.00
2023-04-18T16:15:54.021Z,11.00
2023-04-18T16:18:21.015Z,11.00
2023-04-18T16:20:47.869Z,10.90
2023-04-18T16:23:14.574Z,11.00
2023-04-18T16:25:41.351Z,11.10
2023-04-18T16:28:08.295Z,11.20
2023-04-18T16:30:34.980Z,11.20
2023-04-18T16:33:02.069Z,11.20
2023-04-18T16:35:28.992Z,11.10
2023-04-18T16:37:55.731Z,11.00
2023-04-18T16:40:22.498Z,10.80
2023-04-18T16:42:49.338Z,10.80
2023-04-18T16:45:17.374Z,10.70
2023-04-18T16:47:44.077Z,10.70
2023-04-18T16:50:11.074Z,10.80
2023-04-18T16:52:37.864Z,10.70
2023-04-18T16:55:05.150Z,10.80
2023-04-18T16:57:31.844Z,10.70
2023-04-18T17:00:00.650Z,10.60
2023-04-18T17:02:27.513Z,10.60
2023-04-18T17:04:54.523Z,10.60
2023-04-18T17:07:21.247Z,10.60
2023-04-18T17:09:48.176Z,10.50
2023-04-18T17:12:14.923Z,10.60
2023-04-18T17:14:41.877Z,10.60
2023-04-18T17:17:08.664Z,10.60
2023-04-18T17:19:35.597Z,10.70
2023-04-18T17:22:02.772Z,10.80
2023-04-18T17:24:29.485Z,10.90
2023-04-18T17:26:57.864Z,10.90
2023-04-18T17:29:25.412Z,11.00
2023-04-18T17:31:53.447Z,11.00
2023-04-18T17:34:20.295Z,10.90
2023-04-18T17:36:47.094Z,10.90
2023-04-18T17:39:18.761Z,10.80
2023-04-18T17:41:46.106Z,10.70
2023-04-18T17:44:13.033Z,10.70
2023-04-18T17:46:39.771Z,10.60
2023-04-18T17:49:06.540Z,10.60
2023-04-18T17:51:33.326Z,10.60
2023-04-18T17:54:00.145Z,10.50
2023-04-18T17:56:27.466Z,10.50
2023-04-18T17:58:56.410Z,10.40
2023-04-18T18:01:24.934Z,10.50
2023-04-18T18:03:53.788Z,10.40
2023-04-18T18:06:21.279Z,10.40
2023-04-18T18:08:48.382Z,10.40
2023-04-18T18:11:15.146Z,10.40
2023-04-18T18:13:42.358Z,10.40
2023-04-18T18:16:09.332Z,10.40
2023-04-18T18:18:36.904Z,10.40
2023-04-18T18:21:03.997Z,10.40
2023-04-18T18:23:30.904Z,10.30
2023-04-18T18:25:57.600Z,10.40
2023-04-18T18:28:24.469Z,10.30
2023-04-18T18:30:51.483Z,10.30
2023-04-18T18:33:18.392Z,10.30
2023-04-18T18:35:45.186Z,10.30
2023-04-18T18:38:11.910Z,10.20
2023-04-18T18:40:38.808Z,10.20
2023-04-18T18:43:05.713Z,10.10
2023-04-18T18:45:32.476Z,10.00
2023-04-18T18:47:59.468Z,9.90
2023-04-18T18:50:26.365Z,9.80
2023-04-18T18:52:53.166Z,9.80
2023-04-18T18:55:20.103Z,9.70
2023-04-18T18:57:46.900Z,9.70
2023-04-18T19:00:13.845Z,9.60
2023-04-18T19:02:40.853Z,9.50
2023-04-18T19:05:07.848Z,9.50
2023-04-18T19:07:34.692Z,9.40
2023-04-18T19:10:02.073Z,9.40
2023-04-18T19:12:29.447Z,9.30
2023-04-18T19:14:56.442Z,9.30
2023-04-18T19:17:25.019Z,9.20
2023-04-18T19:19:52.143Z,9.20
2023-04-18T19:22:34.456Z,9.10
2023-04-18T19:25:01.408Z,9.10
2023-04-18T19:27:28.235Z,9.10
2023-04-18T19:29:55.158Z,9.10
2023-04-18T19:32:22.060Z,9.00
2023-04-18T19:34:48.780Z,9.00
2023-04-18T19:37:15.689Z,9.00
2023-04-18T19:39:42.458Z,9.00
2023-04-18T19:42:09.110Z,8.90
2023-04-18T19:44:35.916Z,8.90
2023-04-18T19:47:03.135Z,9.00
2023-04-18T19:49:30.457Z,8.90
2023-04-18T19:51:58.334Z,8.90
2023-04-18T19:54:25.323Z,8.90
2023-04-18T19:56:52.126Z,8.80
2023-04-18T19:59:20.987Z,8.80
2023-04-18T20:01:47.829Z,8.90
2023-04-18T20:04:14.912Z,8.90
2023-04-18T20:06:45.410Z,9.00
2023-04-18T20:09:16.858Z,9.00
2023-04-18T20:11:43.796Z,9.10
2023-04-18T20:14:10.871Z,9.10
2023-04-18T20:16:39.217Z,9.10
2023-04-18T20:19:06.181Z,9.10
2023-04-18T20:21:33.055Z,9.20
2023-04-18T20:23:59.873Z,9.20
2023-04-18T20:26:26.835Z,9.20
2023-04-18T20:28:53.545Z,9.30
2023-04-18T20:31:20.387Z,9.30
2023-04-18T20:33:47.259Z,9.30
2023-04-18T20:36:14.230Z,9.30
2023-04-18T20:38:40.972Z,9.30
2023-04-18T20:41:10.731Z,9.30
2023-04-18T20:43:37.678Z,9.40
2023-04-18T20:46:04.514Z,9.40
2023-04-18T20:48:31.384Z,9.40
2023-04-18T20:50:58.261Z,9.40
2023-04-18T20:53:27.066Z,9.40
2023-04-18T20:55:53.905Z,9.50
2023-04-18T20:58:20.847Z,9.50
2023-04-18T21:00:48.709Z,9.50
2023-04-18T21:03:17.489Z,9.50
2023-04-18T21:05:44.440Z,9.50
2023-04-18T21:08:11.593Z,9.50
2023-04-18T21:10:38.431Z,9.60
2023-04-18T21:13:05.166Z,9.60
2023-04-18T21:15:31.845Z,9.60
2023-04-18T21:17:58.492Z,9.60
2023-04-18T21:20:25.179Z,9.60
2023-04-18T21:22:51.955Z,9.60
2023-04-18T21:25:20.486Z,9.60
2023-04-18T21:27:47.221Z,9.70
2023-04-18T21:30:13.930Z,9.60
2023-04-18T21:32:40.636Z,9.60
2023-04-18T21:35:07.306Z,9.60
2023-04-18T21:37:33.942Z,9.70
2023-04-18T21:40:00.640Z,9.70
2023-04-18T21:42:27.331Z,9.70
2023-04-18T21:44:54.947Z,9.60
2023-04-18T21:47:21.673Z,9.70
2023-04-18T21:49:48.500Z,9.70
2023-04-18T21:52:15.370Z,9.60
2023-04-18T21:54:42.028Z,9.70
2023-04-18T21:57:08.701Z,9.60
2023-04-18T21:59:35.380Z,9.70
2023-04-18T22:02:02.193Z,9.60
2023-04-18T22:04:29.135Z,9.70
2023-04-18T22:06:57.597Z,9.60
2023-04-18T22:09:24.304Z,9.70
2023-04-18T22:11:51.940Z,9.70
2023-04-18T22:14:20.031Z,9.70
2023-04-18T22:16:46.815Z,9.70
2023-04-18T22:19:14.176Z,9.80
2023-04-18T22:21:40.863Z,9.70
2023-04-18T22:24:07.539Z,9.70
2023-04-18T22:26:34.179Z,9.60
2023-04-18T22:29:00.848Z,9.60
2023-04-18T22:31:27.543Z,9.60
2023-04-18T22:33:54.164Z,9.60
2023-04-18T22:36:20.811Z,9.50
2023-04-18T22:38:47.449Z,9.40
2023-04-18T22:41:14.032Z,9.40
2023-04-18T22:43:40.804Z,9.40
2023-04-18T22:46:07.468Z,9.30
2023-04-18T22:48:35.296Z,9.30
2023-04-18T22:51:02.011Z,9.30
2023-04-18T22:53:28.714Z,9.30
2023-04-18T22:55:55.498Z,9.20
2023-04-18T22:58:22.266Z,9.20
2023-04-18T23:00:48.899Z,9.10
2023-04-18T23:03:15.863Z,9.00
2023-04-18T23:05:42.632Z,9.00
2023-04-18T23:08:09.320Z,8.90
2023-04-18T23:10:35.966Z,8.90
2023-04-18T23:13:02.667Z,8.80
2023-04-18T23:15:29.312Z,8.80
2023-04-18T23:17:55.992Z,8.80
2023-04-18T23:20:23.973Z,8.80
2023-04-18T23:22:51.684Z,8.70
2023-04-18T23:25:19.568Z,8.70
2023-04-18T23:27:46.363Z,8.60
2023-04-18T23:30:13.052Z,8.60
2023-04-18T23:32:39.744Z,8.50
2023-04-18T23:35:06.531Z,8.50
2023-04-18T23:37:33.137Z,8.50
2023-04-18T23:39:59.766Z,8.50
2023-04-18T23:42:26.437Z,8.50
2023-04-18T23:44:53.201Z,8.50
2023-04-18T23:47:19.834Z,8.50
2023-04-18T23:49:46.545Z,8.50
2023-04-18T23:52:13.134Z,8.50
2023-04-18T23:54:39.902Z,8.40
2023-04-18T23:57:06.565Z,8.40
2023-04-18T23:59:33.238Z,8.40
